createdAt,value
2023-01-17T00:00:10.855Z,955.27
2023-01-17T00:01:10.777Z,955.26
2023-01-17T00:02:10.771Z,955.26
2023-01-17T00:03:10.772Z,955.33
2023-01-17T00:04:10.809Z,955.34
2023-01-17T00:05:10.742Z,955.38
2023-01-17T00:06:10.736Z,955.32
2023-01-17T00:07:10.728Z,955.30
2023-01-17T00:08:10.715Z,955.37
2023-01-17T00:09:10.721Z,955.42
2023-01-17T00:10:10.700Z,955.42
2023-01-17T00:11:10.685Z,955.39
2023-01-17T00:12:10.706Z,955.38
2023-01-17T00:13:10.677Z,955.37
2023-01-17T00:14:10.662Z,955.41
2023-01-17T00:15:10.653Z,955.47
2023-01-17T00:16:10.638Z,955.45
2023-01-17T00:17:10.643Z,955.43
2023-01-17T00:18:10.621Z,955.48
2023-01-17T00:19:10.605Z,955.47
2023-01-17T00:20:10.595Z,955.49
2023-01-17T00:21:10.586Z,955.48
2023-01-17T00:22:10.576Z,955.48
2023-01-17T00:23:10.601Z,955.53
2023-01-17T00:24:10.548Z,955.51
2023-01-17T00:25:10.561Z,955.48
2023-01-17T00:26:10.543Z,955.50
2023-01-17T00:27:10.542Z,955.58
2023-01-17T00:28:10.519Z,955.54
2023-01-17T00:29:10.524Z,955.52
2023-01-17T00:30:10.566Z,955.47
2023-01-17T00:31:10.511Z,955.46
2023-01-17T00:32:10.493Z,955.38
2023-01-17T00:33:10.477Z,955.49
2023-01-17T00:34:10.469Z,955.51
2023-01-17T00:35:10.474Z,955.38
2023-01-17T00:36:10.462Z,955.52
2023-01-17T00:37:10.430Z,955.54
2023-01-17T00:38:10.444Z,955.49
2023-01-17T00:39:10.404Z,955.50
2023-01-17T00:40:10.402Z,955.55
2023-01-17T00:41:10.413Z,955.46
2023-01-17T00:42:10.383Z,955.56
2023-01-17T00:43:10.395Z,955.57
2023-01-17T00:44:10.352Z,955.55
2023-01-17T00:45:10.352Z,955.66
2023-01-17T00:46:10.512Z,955.59
2023-01-17T00:47:10.345Z,955.56
2023-01-17T00:48:10.336Z,955.57
2023-01-17T00:49:10.300Z,955.69
2023-01-17T00:50:10.290Z,955.66
2023-01-17T00:51:10.301Z,955.70
2023-01-17T00:52:10.299Z,955.75
2023-01-17T00:53:10.298Z,955.68
2023-01-17T00:54:10.265Z,955.98
2023-01-17T00:55:10.268Z,956.01
2023-01-17T00:56:10.254Z,955.90
2023-01-17T00:57:10.249Z,956.03
2023-01-17T00:58:10.214Z,955.87
2023-01-17T00:59:10.245Z,956.10
2023-01-17T01:00:10.211Z,956.11
2023-01-17T01:01:10.335Z,956.05
2023-01-17T01:02:10.355Z,956.17
2023-01-17T01:03:10.228Z,956.14
2023-01-17T01:04:10.166Z,956.19
2023-01-17T01:05:10.168Z,956.20
2023-01-17T01:06:10.154Z,956.15
2023-01-17T01:07:10.137Z,956.12
2023-01-17T01:08:10.152Z,956.18
2023-01-17T01:09:10.124Z,956.22
2023-01-17T01:10:10.116Z,956.15
2023-01-17T01:11:10.105Z,956.23
2023-01-17T01:12:10.105Z,956.15
2023-01-17T01:13:10.088Z,956.14
2023-01-17T01:14:10.071Z,956.18
2023-01-17T01:15:10.059Z,956.21
2023-01-17T01:16:10.130Z,956.30
2023-01-17T01:17:10.063Z,956.23
2023-01-17T01:18:10.027Z,956.29
2023-01-17T01:19:10.034Z,956.32
2023-01-17T01:20:10.039Z,956.34
2023-01-17T01:21:10.005Z,956.20
2023-01-17T01:22:10.030Z,956.39
2023-01-17T01:23:10.024Z,956.40
2023-01-17T01:24:09.972Z,956.36
2023-01-17T01:25:09.981Z,956.38
2023-01-17T01:26:09.973Z,956.46
2023-01-17T01:27:09.966Z,956.46
2023-01-17T01:28:09.936Z,956.48
2023-01-17T01:29:09.949Z,956.49
2023-01-17T01:30:09.961Z,956.53
2023-01-17T01:31:09.932Z,956.45
2023-01-17T01:32:09.902Z,956.53
2023-01-17T01:33:09.904Z,956.60
2023-01-17T01:34:09.880Z,956.56
2023-01-17T01:35:09.874Z,956.52
2023-01-17T01:36:09.878Z,956.56
2023-01-17T01:37:09.849Z,956.48
2023-01-17T01:38:09.841Z,956.61
2023-01-17T01:39:09.823Z,956.67
2023-01-17T01:40:09.817Z,956.63
2023-01-17T01:41:09.842Z,956.75
2023-01-17T01:42:09.803Z,956.58
2023-01-17T01:43:09.799Z,956.67
2023-01-17T01:44:09.776Z,956.65
2023-01-17T01:45:41.725Z,956.73
2023-01-17T01:46:09.769Z,956.77
2023-01-17T01:47:09.755Z,956.78
2023-01-17T01:48:09.759Z,956.76
2023-01-17T01:49:09.777Z,956.79
2023-01-17T01:50:09.723Z,956.83
2023-01-17T01:51:09.780Z,956.86
2023-01-17T01:52:09.715Z,956.80
2023-01-17T01:53:09.692Z,956.77
2023-01-17T01:54:09.688Z,956.85
2023-01-17T01:55:09.677Z,956.94
2023-01-17T01:56:09.718Z,956.91
2023-01-17T01:57:09.684Z,956.96
2023-01-17T01:58:09.668Z,956.97
2023-01-17T01:59:09.635Z,956.88
2023-01-17T02:00:09.641Z,956.94
2023-01-17T02:01:09.810Z,956.95
2023-01-17T02:02:09.674Z,956.91
2023-01-17T02:03:09.629Z,956.90
2023-01-17T02:04:09.663Z,956.92
2023-01-17T02:05:09.584Z,956.88
2023-01-17T02:06:09.586Z,956.91
2023-01-17T02:07:09.609Z,956.91
2023-01-17T02:08:09.573Z,956.93
2023-01-17T02:09:09.562Z,956.96
2023-01-17T02:10:09.550Z,956.92
2023-01-17T02:11:09.541Z,956.97
2023-01-17T02:12:09.532Z,956.92
2023-01-17T02:13:09.542Z,957.00
2023-01-17T02:14:09.520Z,956.93
2023-01-17T02:15:09.497Z,956.97
2023-01-17T02:16:09.514Z,956.98
2023-01-17T02:17:09.481Z,957.05
2023-01-17T02:18:09.518Z,957.08
2023-01-17T02:19:09.468Z,957.12
2023-01-17T02:20:09.461Z,957.10
2023-01-17T02:21:09.439Z,957.20
2023-01-17T02:22:09.438Z,957.19
2023-01-17T02:23:09.427Z,957.16
2023-01-17T02:24:09.459Z,957.23
2023-01-17T02:25:09.400Z,957.18
2023-01-17T02:26:09.399Z,957.16
2023-01-17T02:27:09.382Z,957.15
2023-01-17T02:28:09.400Z,957.19
2023-01-17T02:29:09.370Z,957.13
2023-01-17T02:30:09.358Z,957.26
2023-01-17T02:31:09.339Z,957.24
2023-01-17T02:32:09.337Z,957.20
2023-01-17T02:33:09.344Z,957.29
2023-01-17T02:34:09.318Z,957.24
2023-01-17T02:35:09.315Z,957.28
2023-01-17T02:36:09.297Z,957.25
2023-01-17T02:37:09.289Z,957.29
2023-01-17T02:38:09.270Z,957.19
2023-01-17T02:39:09.286Z,957.28
2023-01-17T02:40:09.271Z,957.32
2023-01-17T02:41:09.243Z,957.34
2023-01-17T02:42:09.235Z,957.28
2023-01-17T02:43:09.236Z,957.31
2023-01-17T02:44:09.238Z,957.30
2023-01-17T02:45:09.231Z,957.36
2023-01-17T02:46:09.985Z,957.41
2023-01-17T02:47:10.198Z,957.39
2023-01-17T02:48:09.191Z,957.40
2023-01-17T02:49:09.172Z,957.38
2023-01-17T02:50:09.168Z,957.48
2023-01-17T02:51:09.159Z,957.43
2023-01-17T02:52:09.148Z,957.27
2023-01-17T02:53:09.148Z,957.48
2023-01-17T02:54:09.118Z,957.43
2023-01-17T02:55:09.124Z,957.49
2023-01-17T02:56:09.124Z,957.47
2023-01-17T02:57:09.077Z,957.41
2023-01-17T02:58:09.090Z,957.40
2023-01-17T02:59:09.081Z,957.46
2023-01-17T03:00:09.085Z,957.50
2023-01-17T03:01:09.229Z,957.47
2023-01-17T03:02:09.147Z,957.53
2023-01-17T03:03:09.028Z,957.53
2023-01-17T03:04:09.033Z,957.53
2023-01-17T03:05:09.028Z,957.60
2023-01-17T03:06:09.048Z,957.54
2023-01-17T03:07:08.983Z,957.58
2023-01-17T03:08:09.998Z,957.65
2023-01-17T03:09:08.981Z,957.66
2023-01-17T03:10:09.003Z,957.66
2023-01-17T03:11:08.963Z,957.64
2023-01-17T03:12:08.944Z,957.65
2023-01-17T03:13:08.944Z,957.69
2023-01-17T03:14:08.934Z,957.63
2023-01-17T03:15:08.943Z,957.67
2023-01-17T03:16:09.998Z,957.69
2023-01-17T03:17:08.907Z,957.58
2023-01-17T03:18:08.894Z,957.77
2023-01-17T03:19:08.888Z,957.92
2023-01-17T03:20:08.886Z,957.78
2023-01-17T03:21:08.884Z,957.77
2023-01-17T03:22:08.860Z,957.80
2023-01-17T03:23:08.851Z,957.91
2023-01-17T03:24:08.854Z,958.03
2023-01-17T03:25:08.827Z,957.95
2023-01-17T03:26:08.813Z,957.92
2023-01-17T03:27:08.835Z,957.97
2023-01-17T03:28:08.790Z,957.94
2023-01-17T03:29:08.805Z,957.92
2023-01-17T03:30:08.770Z,957.91
2023-01-17T03:31:08.765Z,958.00
2023-01-17T03:32:08.756Z,957.94
2023-01-17T03:33:08.755Z,957.95
2023-01-17T03:34:08.753Z,957.99
2023-01-17T03:35:08.753Z,957.89
2023-01-17T03:36:08.723Z,958.00
2023-01-17T03:37:08.701Z,958.04
2023-01-17T03:38:08.691Z,958.02
2023-01-17T03:39:09.697Z,958.01
2023-01-17T03:40:08.705Z,958.06
2023-01-17T03:41:08.683Z,958.05
2023-01-17T03:42:08.689Z,958.05
2023-01-17T03:43:08.709Z,957.99
2023-01-17T03:44:08.636Z,958.03
2023-01-17T03:45:08.628Z,958.10
2023-01-17T03:46:08.701Z,958.10
2023-01-17T03:47:08.621Z,958.12
2023-01-17T03:48:08.631Z,958.14
2023-01-17T03:49:08.618Z,958.16
2023-01-17T03:50:08.598Z,958.12
2023-01-17T03:51:08.586Z,958.10
2023-01-17T03:52:08.553Z,958.20
2023-01-17T03:53:08.555Z,958.12
2023-01-17T03:54:08.559Z,958.22
2023-01-17T03:55:08.563Z,958.25
2023-01-17T03:56:08.517Z,958.24
2023-01-17T03:57:08.526Z,958.23
2023-01-17T03:58:08.513Z,958.21
2023-01-17T03:59:08.496Z,958.29
2023-01-17T04:00:08.508Z,958.27
2023-01-17T04:01:08.563Z,958.24
2023-01-17T04:02:08.648Z,958.30
2023-01-17T04:03:08.467Z,958.34
2023-01-17T04:04:08.438Z,958.45
2023-01-17T04:05:08.438Z,958.45
2023-01-17T04:06:08.453Z,958.51
2023-01-17T04:07:08.466Z,958.45
2023-01-17T04:08:08.418Z,958.48
2023-01-17T04:09:08.407Z,958.54
2023-01-17T04:10:08.396Z,958.54
2023-01-17T04:11:08.399Z,958.67
2023-01-17T04:12:08.375Z,958.61
2023-01-17T04:13:08.367Z,958.55
2023-01-17T04:14:08.356Z,958.60
2023-01-17T04:15:08.347Z,958.58
2023-01-17T04:16:08.340Z,958.58
2023-01-17T04:17:08.333Z,958.57
2023-01-17T04:18:08.339Z,958.63
2023-01-17T04:19:08.301Z,958.65
2023-01-17T04:20:08.283Z,958.62
2023-01-17T04:21:08.292Z,958.62
2023-01-17T04:22:08.287Z,958.72
2023-01-17T04:23:08.274Z,958.71
2023-01-17T04:24:08.264Z,958.63
2023-01-17T04:25:08.245Z,958.74
2023-01-17T04:26:08.251Z,958.80
2023-01-17T04:27:08.251Z,958.74
2023-01-17T04:28:08.209Z,958.71
2023-01-17T04:29:08.201Z,958.80
2023-01-17T04:30:08.195Z,958.74
2023-01-17T04:31:08.264Z,958.79
2023-01-17T04:32:08.193Z,958.82
2023-01-17T04:33:08.172Z,958.86
2023-01-17T04:34:08.160Z,958.80
2023-01-17T04:35:08.158Z,958.82
2023-01-17T04:36:08.144Z,958.87
2023-01-17T04:37:08.125Z,958.85
2023-01-17T04:38:08.139Z,958.88
2023-01-17T04:39:08.118Z,958.93
2023-01-17T04:40:08.118Z,958.94
2023-01-17T04:41:08.115Z,958.88
2023-01-17T04:42:08.088Z,958.93
2023-01-17T04:43:08.080Z,958.97
2023-01-17T04:44:08.075Z,958.99
2023-01-17T04:45:08.051Z,958.93
2023-01-17T04:46:08.073Z,959.02
2023-01-17T04:47:08.035Z,959.01
2023-01-17T04:48:08.041Z,959.01
2023-01-17T04:49:08.027Z,959.09
2023-01-17T04:50:08.005Z,959.07
2023-01-17T04:51:08.019Z,959.12
2023-01-17T04:52:07.987Z,959.15
2023-01-17T04:53:07.977Z,959.15
2023-01-17T04:54:08.024Z,959.22
2023-01-17T04:55:07.958Z,959.20
2023-01-17T04:56:07.984Z,959.24
2023-01-17T04:57:07.958Z,959.21
2023-01-17T04:58:07.941Z,959.23
2023-01-17T04:59:07.935Z,959.21
2023-01-17T05:00:07.943Z,959.23
2023-01-17T05:01:08.080Z,959.31
2023-01-17T05:02:07.915Z,959.27
2023-01-17T05:03:07.895Z,959.32
2023-01-17T05:04:07.900Z,959.31
2023-01-17T05:05:07.889Z,959.41
2023-01-17T05:06:07.876Z,959.45
2023-01-17T05:07:07.851Z,959.46
2023-01-17T05:08:07.872Z,959.41
2023-01-17T05:09:07.839Z,959.44
2023-01-17T05:10:07.824Z,959.46
2023-01-17T05:11:07.843Z,959.44
2023-01-17T05:12:07.793Z,959.51
2023-01-17T05:13:07.790Z,959.50
2023-01-17T05:14:07.798Z,959.56
2023-01-17T05:15:07.798Z,959.57
2023-01-17T05:16:07.833Z,959.56
2023-01-17T05:17:07.758Z,959.58
2023-01-17T05:18:07.742Z,959.67
2023-01-17T05:19:07.736Z,959.76
2023-01-17T05:20:07.742Z,959.72
2023-01-17T05:21:07.744Z,959.76
2023-01-17T05:22:07.729Z,959.76
2023-01-17T05:23:07.701Z,959.70
2023-01-17T05:24:07.689Z,959.76
2023-01-17T05:25:07.703Z,959.79
2023-01-17T05:26:07.706Z,959.70
2023-01-17T05:27:07.655Z,959.70
2023-01-17T05:28:07.646Z,959.69
2023-01-17T05:29:07.638Z,959.78
2023-01-17T05:30:07.625Z,959.69
2023-01-17T05:31:07.659Z,959.73
2023-01-17T05:32:07.623Z,959.78
2023-01-17T05:33:07.599Z,959.78
2023-01-17T05:34:07.589Z,959.79
2023-01-17T05:35:07.634Z,959.83
2023-01-17T05:36:07.572Z,959.87
2023-01-17T05:37:07.557Z,959.88
2023-01-17T05:38:07.558Z,959.97
2023-01-17T05:39:07.541Z,959.87
2023-01-17T05:40:07.529Z,959.92
2023-01-17T05:41:07.561Z,959.95
2023-01-17T05:42:07.528Z,959.91
2023-01-17T05:43:07.531Z,959.93
2023-01-17T05:44:07.508Z,959.97
2023-01-17T05:45:07.508Z,960.00
2023-01-17T05:46:07.499Z,959.92
2023-01-17T05:47:07.517Z,960.02
2023-01-17T05:48:07.458Z,959.96
2023-01-17T05:49:07.473Z,959.94
2023-01-17T05:50:07.434Z,959.97
2023-01-17T05:51:07.427Z,959.95
2023-01-17T05:52:07.420Z,959.92
2023-01-17T05:53:07.427Z,959.97
2023-01-17T05:54:07.407Z,960.04
2023-01-17T05:55:07.390Z,960.01
2023-01-17T05:56:07.394Z,960.07
2023-01-17T05:57:07.389Z,959.97
2023-01-17T05:58:07.380Z,960.01
2023-01-17T05:59:07.343Z,959.99
2023-01-17T06:00:07.348Z,960.10
2023-01-17T06:01:07.346Z,960.09
2023-01-17T06:02:07.318Z,960.16
2023-01-17T06:03:07.311Z,960.08
2023-01-17T06:04:07.337Z,960.13
2023-01-17T06:05:07.320Z,960.14
2023-01-17T06:06:07.334Z,960.16
2023-01-17T06:07:07.298Z,960.14
2023-01-17T06:08:07.301Z,960.20
2023-01-17T06:09:07.283Z,960.20
2023-01-17T06:10:07.286Z,960.13
2023-01-17T06:11:07.264Z,960.20
2023-01-17T06:12:07.222Z,960.24
2023-01-17T06:13:07.218Z,960.24
2023-01-17T06:14:07.210Z,960.28
2023-01-17T06:15:07.205Z,960.27
2023-01-17T06:16:07.282Z,960.36
2023-01-17T06:17:07.171Z,960.32
2023-01-17T06:18:07.187Z,960.23
2023-01-17T06:19:07.160Z,960.22
2023-01-17T06:20:07.162Z,960.23
2023-01-17T06:21:07.150Z,960.31
2023-01-17T06:22:07.153Z,960.26
2023-01-17T06:23:07.141Z,960.26
2023-01-17T06:24:07.108Z,960.31
2023-01-17T06:25:07.097Z,960.30
2023-01-17T06:26:07.088Z,960.42
2023-01-17T06:27:07.085Z,960.38
2023-01-17T06:28:07.104Z,960.39
2023-01-17T06:29:07.067Z,960.52
2023-01-17T06:30:07.052Z,960.46
2023-01-17T06:31:07.131Z,960.47
2023-01-17T06:32:07.041Z,960.47
2023-01-17T06:33:07.038Z,960.48
2023-01-17T06:34:07.031Z,960.42
2023-01-17T06:35:07.009Z,960.42
2023-01-17T06:36:07.005Z,960.41
2023-01-17T06:37:06.993Z,960.44
2023-01-17T06:38:06.997Z,960.44
2023-01-17T06:39:06.961Z,960.45
2023-01-17T06:40:06.955Z,960.55
2023-01-17T06:41:06.961Z,960.53
2023-01-17T06:42:06.937Z,960.54
2023-01-17T06:43:06.926Z,960.48
2023-01-17T06:44:06.936Z,960.58
2023-01-17T06:45:06.901Z,960.55
2023-01-17T06:46:06.915Z,960.64
2023-01-17T06:47:06.881Z,960.60
2023-01-17T06:48:06.873Z,960.58
2023-01-17T06:49:06.881Z,960.63
2023-01-17T06:50:06.855Z,960.64
2023-01-17T06:51:06.864Z,960.67
2023-01-17T06:52:06.835Z,960.65
2023-01-17T06:53:06.873Z,960.68
2023-01-17T06:54:06.837Z,960.70
2023-01-17T06:55:06.805Z,960.70
2023-01-17T06:56:07.809Z,960.69
2023-01-17T06:57:06.809Z,960.69
2023-01-17T06:58:06.795Z,960.75
2023-01-17T06:59:06.821Z,960.73
2023-01-17T07:00:06.793Z,960.73
2023-01-17T07:01:06.805Z,960.76
2023-01-17T07:02:06.748Z,960.81
2023-01-17T07:03:06.732Z,960.81
2023-01-17T07:04:06.763Z,960.83
2023-01-17T07:05:06.734Z,960.85
2023-01-17T07:06:06.706Z,960.80
2023-01-17T07:07:06.722Z,960.81
2023-01-17T07:08:06.680Z,960.81
2023-01-17T07:09:06.663Z,960.90
2023-01-17T07:10:06.676Z,960.90
2023-01-17T07:11:06.673Z,960.87
2023-01-17T07:12:06.646Z,960.87
2023-01-17T07:13:06.633Z,960.92
2023-01-17T07:14:06.615Z,960.94
2023-01-17T07:15:06.618Z,960.86
2023-01-17T07:16:06.642Z,960.88
2023-01-17T07:17:06.593Z,960.90
2023-01-17T07:18:06.593Z,960.94
2023-01-17T07:19:06.598Z,960.91
2023-01-17T07:20:06.562Z,960.92
2023-01-17T07:21:06.555Z,960.90
2023-01-17T07:22:06.564Z,960.94
2023-01-17T07:23:06.535Z,960.97
2023-01-17T07:24:06.538Z,960.98
2023-01-17T07:25:06.509Z,961.02
2023-01-17T07:26:06.500Z,961.01
2023-01-17T07:27:06.533Z,961.10
2023-01-17T07:28:06.499Z,961.03
2023-01-17T07:29:06.480Z,961.05
2023-01-17T07:30:06.471Z,961.00
2023-01-17T07:31:06.489Z,961.05
2023-01-17T07:32:06.490Z,961.07
2023-01-17T07:33:06.465Z,961.03
2023-01-17T07:34:06.447Z,960.99
2023-01-17T07:35:06.439Z,961.06
2023-01-17T07:36:06.430Z,961.02
2023-01-17T07:37:06.442Z,961.04
2023-01-17T07:38:06.424Z,961.07
2023-01-17T07:39:06.489Z,961.08
2023-01-17T07:40:06.385Z,961.14
2023-01-17T07:41:06.364Z,961.09
2023-01-17T07:42:06.361Z,961.15
2023-01-17T07:43:06.367Z,961.19
2023-01-17T07:44:06.327Z,961.11
2023-01-17T07:45:15.707Z,961.15
2023-01-17T07:46:06.347Z,961.16
2023-01-17T07:47:06.322Z,961.19
2023-01-17T07:48:06.293Z,961.18
2023-01-17T07:49:06.276Z,961.16
2023-01-17T07:50:06.276Z,961.19
2023-01-17T07:51:06.285Z,961.20
2023-01-17T07:52:06.264Z,961.13
2023-01-17T07:53:06.262Z,961.16
2023-01-17T07:54:06.235Z,961.19
2023-01-17T07:55:06.228Z,961.14
2023-01-17T07:56:06.243Z,961.17
2023-01-17T07:57:06.216Z,961.17
2023-01-17T07:58:06.194Z,961.13
2023-01-17T07:59:06.188Z,961.18
2023-01-17T08:00:06.193Z,961.06
2023-01-17T08:01:06.271Z,961.10
2023-01-17T08:02:06.242Z,961.10
2023-01-17T08:03:06.158Z,961.18
2023-01-17T08:04:06.175Z,961.12
2023-01-17T08:05:06.138Z,961.11
2023-01-17T08:06:06.155Z,961.04
2023-01-17T08:07:06.126Z,961.02
2023-01-17T08:08:06.098Z,961.06
2023-01-17T08:09:06.091Z,961.05
2023-01-17T08:10:06.078Z,961.04
2023-01-17T08:11:06.078Z,961.05
2023-01-17T08:12:06.076Z,961.00
2023-01-17T08:13:06.055Z,961.06
2023-01-17T08:14:06.044Z,960.98
2023-01-17T08:15:06.039Z,961.06
2023-01-17T08:16:06.090Z,960.98
2023-01-17T08:17:06.039Z,961.05
2023-01-17T08:18:06.009Z,961.07
2023-01-17T08:19:05.991Z,961.00
2023-01-17T08:20:05.980Z,961.06
2023-01-17T08:21:05.973Z,961.01
2023-01-17T08:22:05.976Z,961.03
2023-01-17T08:23:05.971Z,961.02
2023-01-17T08:24:05.967Z,961.03
2023-01-17T08:25:05.951Z,961.03
2023-01-17T08:26:05.944Z,961.01
2023-01-17T08:27:05.907Z,961.08
2023-01-17T08:28:05.915Z,961.11
2023-01-17T08:29:05.890Z,961.05
2023-01-17T08:30:05.882Z,961.06
2023-01-17T08:31:05.867Z,961.03
2023-01-17T08:32:05.882Z,961.09
2023-01-17T08:33:05.867Z,961.01
2023-01-17T08:34:05.849Z,961.11
2023-01-17T08:35:05.832Z,961.10
2023-01-17T08:36:05.820Z,961.11
2023-01-17T08:37:05.832Z,961.10
2023-01-17T08:38:05.806Z,961.08
2023-01-17T08:39:05.803Z,961.03
2023-01-17T08:40:05.778Z,961.03
2023-01-17T08:41:05.783Z,961.02
2023-01-17T08:42:05.765Z,961.00
2023-01-17T08:43:05.807Z,960.95
2023-01-17T08:44:05.754Z,961.05
2023-01-17T08:45:05.732Z,961.05
2023-01-17T08:46:05.761Z,961.08
2023-01-17T08:47:05.716Z,961.10
2023-01-17T08:48:05.731Z,961.03
2023-01-17T08:49:05.704Z,961.10
2023-01-17T08:50:05.717Z,961.18
2023-01-17T08:51:05.682Z,961.20
2023-01-17T08:52:05.678Z,961.23
2023-01-17T08:53:05.659Z,961.28
2023-01-17T08:54:05.648Z,961.21
2023-01-17T08:55:05.665Z,961.22
2023-01-17T08:56:05.653Z,961.22
2023-01-17T08:57:05.616Z,961.27
2023-01-17T08:58:05.607Z,961.28
2023-01-17T08:59:05.608Z,961.25
2023-01-17T09:00:05.617Z,961.31
2023-01-17T09:01:05.807Z,961.30
2023-01-17T09:02:05.741Z,961.29
2023-01-17T09:03:05.563Z,961.30
2023-01-17T09:04:05.658Z,961.32
2023-01-17T09:05:05.555Z,961.21
2023-01-17T09:06:05.598Z,961.26
2023-01-17T09:07:05.537Z,961.27
2023-01-17T09:08:05.519Z,961.19
2023-01-17T09:09:05.516Z,961.26
2023-01-17T09:10:05.514Z,961.24
2023-01-17T09:11:05.516Z,961.24
2023-01-17T09:12:05.481Z,961.22
2023-01-17T09:13:05.530Z,961.20
2023-01-17T09:14:05.469Z,961.28
2023-01-17T09:15:05.457Z,961.26
2023-01-17T09:16:05.441Z,961.22
2023-01-17T09:17:05.429Z,961.29
2023-01-17T09:18:05.454Z,961.23
2023-01-17T09:19:05.426Z,961.28
2023-01-17T09:20:05.459Z,961.31
2023-01-17T09:21:05.403Z,961.27
2023-01-17T09:22:05.383Z,961.33
2023-01-17T09:23:05.387Z,961.31
2023-01-17T09:24:05.367Z,961.30
2023-01-17T09:25:05.393Z,961.34
2023-01-17T09:26:05.351Z,961.38
2023-01-17T09:27:05.343Z,961.36
2023-01-17T09:28:05.325Z,961.32
2023-01-17T09:29:06.319Z,961.35
2023-01-17T09:30:05.350Z,961.37
2023-01-17T09:31:05.340Z,961.37
2023-01-17T09:32:05.292Z,961.39
2023-01-17T09:33:05.278Z,961.42
2023-01-17T09:34:05.265Z,961.37
2023-01-17T09:35:05.282Z,961.45
2023-01-17T09:36:05.264Z,961.41
2023-01-17T09:37:05.249Z,961.41
2023-01-17T09:38:05.236Z,961.39
2023-01-17T09:39:05.231Z,961.37
2023-01-17T09:40:05.244Z,961.44
2023-01-17T09:41:05.206Z,961.42
2023-01-17T09:42:05.204Z,961.42
2023-01-17T09:43:05.193Z,961.45
2023-01-17T09:44:05.177Z,961.37
2023-01-17T09:45:05.186Z,961.42
2023-01-17T09:46:05.247Z,961.44
2023-01-17T09:47:05.151Z,961.38
2023-01-17T09:48:05.149Z,961.44
2023-01-17T09:49:05.141Z,961.39
2023-01-17T09:50:05.131Z,961.36
2023-01-17T09:51:05.113Z,961.40
2023-01-17T09:52:05.117Z,961.38
2023-01-17T09:53:05.109Z,961.34
2023-01-17T09:54:05.101Z,961.26
2023-01-17T09:55:07.288Z,961.34
2023-01-17T09:56:05.061Z,961.29
2023-01-17T09:57:05.049Z,961.34
2023-01-17T09:58:05.052Z,961.37
2023-01-17T09:59:05.018Z,961.35
2023-01-17T10:00:05.034Z,961.37
2023-01-17T10:01:05.080Z,961.35
2023-01-17T10:02:05.158Z,961.38
2023-01-17T10:03:05.160Z,961.40
2023-01-17T10:04:05.021Z,961.32
2023-01-17T10:05:04.987Z,961.40
2023-01-17T10:06:04.961Z,961.31
2023-01-17T10:07:04.952Z,961.44
2023-01-17T10:08:04.953Z,961.36
2023-01-17T10:09:04.989Z,961.36
2023-01-17T10:10:04.914Z,961.36
2023-01-17T10:11:04.919Z,961.34
2023-01-17T10:12:04.930Z,961.31
2023-01-17T10:13:04.892Z,961.38
2023-01-17T10:14:04.888Z,961.35
2023-01-17T10:15:04.880Z,961.31
2023-01-17T10:16:04.896Z,961.36
2023-01-17T10:17:04.848Z,961.31
2023-01-17T10:18:04.840Z,961.32
2023-01-17T10:19:04.842Z,961.31
2023-01-17T10:20:04.835Z,961.43
2023-01-17T10:21:04.828Z,961.39
2023-01-17T10:22:04.822Z,961.36
2023-01-17T10:23:04.789Z,961.37
2023-01-17T10:24:04.777Z,961.40
2023-01-17T10:25:04.767Z,961.38
2023-01-17T10:26:04.758Z,961.34
2023-01-17T10:27:04.762Z,961.32
2023-01-17T10:28:04.745Z,961.32
2023-01-17T10:29:04.730Z,961.32
2023-01-17T10:30:04.714Z,961.30
2023-01-17T10:31:04.767Z,961.36
2023-01-17T10:32:04.712Z,961.41
2023-01-17T10:33:04.691Z,961.35
2023-01-17T10:34:04.691Z,961.35
2023-01-17T10:35:04.664Z,961.30
2023-01-17T10:36:04.669Z,961.35
2023-01-17T10:37:04.650Z,961.38
2023-01-17T10:38:05.663Z,961.34
2023-01-17T10:39:04.624Z,961.41
2023-01-17T10:40:04.713Z,961.42
2023-01-17T10:41:04.656Z,961.41
2023-01-17T10:42:04.622Z,961.42
2023-01-17T10:43:04.594Z,961.39
2023-01-17T10:44:04.591Z,961.40
2023-01-17T10:45:04.570Z,961.37
2023-01-17T10:46:04.630Z,961.41
2023-01-17T10:47:04.564Z,961.42
2023-01-17T10:48:04.550Z,961.37
2023-01-17T10:49:04.536Z,961.39
2023-01-17T10:50:04.527Z,961.41
2023-01-17T10:51:04.521Z,961.39
2023-01-17T10:52:04.519Z,961.37
2023-01-17T10:53:04.543Z,961.37
2023-01-17T10:54:04.479Z,961.38
2023-01-17T10:55:04.477Z,961.34
2023-01-17T10:56:04.472Z,961.34
2023-01-17T10:57:04.461Z,961.35
2023-01-17T10:58:04.458Z,961.35
2023-01-17T10:59:04.431Z,961.29
2023-01-17T11:00:04.448Z,961.34
2023-01-17T11:01:04.550Z,961.32
2023-01-17T11:02:04.451Z,961.23
2023-01-17T11:03:04.441Z,961.28
2023-01-17T11:04:04.390Z,961.18
2023-01-17T11:05:04.388Z,961.20
2023-01-17T11:06:04.368Z,961.23
2023-01-17T11:07:04.354Z,961.26
2023-01-17T11:08:04.353Z,961.24
2023-01-17T11:09:04.336Z,961.31
2023-01-17T11:10:04.358Z,961.27
2023-01-17T11:11:04.325Z,961.33
2023-01-17T11:12:04.320Z,961.34
2023-01-17T11:13:04.319Z,961.27
2023-01-17T11:14:04.289Z,961.31
2023-01-17T11:15:04.288Z,961.26
2023-01-17T11:16:04.437Z,961.30
2023-01-17T11:17:04.279Z,961.38
2023-01-17T11:18:04.281Z,961.31
2023-01-17T11:19:04.242Z,961.30
2023-01-17T11:20:04.226Z,961.29
2023-01-17T11:21:04.223Z,961.30
2023-01-17T11:22:04.219Z,961.28
2023-01-17T11:23:04.228Z,961.31
2023-01-17T11:24:04.194Z,961.32
2023-01-17T11:25:04.185Z,961.29
2023-01-17T11:26:04.189Z,961.32
2023-01-17T11:27:04.188Z,961.35
2023-01-17T11:28:04.159Z,961.29
2023-01-17T11:29:04.154Z,961.37
2023-01-17T11:30:04.140Z,961.40
2023-01-17T11:31:04.269Z,961.35
2023-01-17T11:32:04.126Z,961.38
2023-01-17T11:33:04.131Z,961.38
2023-01-17T11:34:04.102Z,961.36
2023-01-17T11:35:04.101Z,961.35
2023-01-17T11:36:04.121Z,961.36
2023-01-17T11:37:04.064Z,961.39
2023-01-17T11:38:04.121Z,961.31
2023-01-17T11:39:04.066Z,961.34
2023-01-17T11:40:04.058Z,961.40
2023-01-17T11:41:04.041Z,961.33
2023-01-17T11:42:04.026Z,961.35
2023-01-17T11:43:04.023Z,961.39
2023-01-17T11:44:03.992Z,961.46
2023-01-17T11:45:03.993Z,961.42
2023-01-17T11:46:04.074Z,961.42
2023-01-17T11:47:03.976Z,961.44
2023-01-17T11:48:03.990Z,961.41
2023-01-17T11:49:03.957Z,961.42
2023-01-17T11:50:03.936Z,961.43
2023-01-17T11:51:03.949Z,961.46
2023-01-17T11:52:03.934Z,961.42
2023-01-17T11:53:03.931Z,961.41
2023-01-17T11:54:03.912Z,961.41
2023-01-17T11:55:03.912Z,961.39
2023-01-17T11:56:03.894Z,961.44
2023-01-17T11:57:03.874Z,961.45
2023-01-17T11:58:03.861Z,961.49
2023-01-17T11:59:03.868Z,961.47
2023-01-17T12:00:03.860Z,961.51
2023-01-17T12:01:03.873Z,961.49
2023-01-17T12:02:03.845Z,961.50
2023-01-17T12:03:03.810Z,961.45
2023-01-17T12:04:03.915Z,961.41
2023-01-17T12:05:03.862Z,961.45
2023-01-17T12:06:03.779Z,961.47
2023-01-17T12:07:03.771Z,961.44
2023-01-17T12:08:03.767Z,961.45
2023-01-17T12:09:03.763Z,961.43
2023-01-17T12:10:03.772Z,961.44
2023-01-17T12:11:03.732Z,961.52
2023-01-17T12:12:04.539Z,961.50
2023-01-17T12:13:04.718Z,961.46
2023-01-17T12:14:03.719Z,961.48
2023-01-17T12:15:03.717Z,961.50
2023-01-17T12:16:03.763Z,961.55
2023-01-17T12:17:03.717Z,961.52
2023-01-17T12:18:03.667Z,961.51
2023-01-17T12:19:03.681Z,961.56
2023-01-17T12:20:03.654Z,961.47
2023-01-17T12:21:03.672Z,961.58
2023-01-17T12:22:03.637Z,961.51
2023-01-17T12:23:03.623Z,961.56
2023-01-17T12:24:03.623Z,961.57
2023-01-17T12:25:03.633Z,961.58
2023-01-17T12:26:03.596Z,961.56
2023-01-17T12:27:03.583Z,961.57
2023-01-17T12:28:03.586Z,961.56